sensor_id;sensor_type;location;lat;lon;timestamp;pressure;altitude;pressure_sealevel;temperature;humidity
7768;BME280;3928;42.626;23.382;2023-02-21T00:02:44;94555.75;;;9.63;50.69
7768;BME280;3928;42.626;23.382;2023-02-21T00:05:28;94553.25;;;9.60;51.64
7768;BME280;3928;42.626;23.382;2023-02-21T00:08:12;94558.41;;;9.54;51.29
7768;BME280;3928;42.626;23.382;2023-02-21T00:10:56;94561.78;;;9.58;50.63
7768;BME280;3928;42.626;23.382;2023-02-21T00:13:41;94555.16;;;9.35;50.58
7768;BME280;3928;42.626;23.382;2023-02-21T00:16:25;94553.44;;;9.33;51.36
7768;BME280;3928;42.626;23.382;2023-02-21T00:19:09;94565.38;;;9.40;51.12
7768;BME280;3928;42.626;23.382;2023-02-21T00:21:54;94557.59;;;9.49;50.94
7768;BME280;3928;42.626;23.382;2023-02-21T00:24:38;94544.88;;;9.38;50.73
7768;BME280;3928;42.626;23.382;2023-02-21T00:27:23;94551.72;;;9.38;50.22
7768;BME280;3928;42.626;23.382;2023-02-21T00:30:10;94526.91;;;9.42;50.70
7768;BME280;3928;42.626;23.382;2023-02-21T00:32:54;94549.09;;;9.44;50.09
7768;BME280;3928;42.626;23.382;2023-02-21T00:35:37;94541.59;;;9.20;51.31
7768;BME280;3928;42.626;23.382;2023-02-21T00:38:21;94529.63;;;9.23;51.42
7768;BME280;3928;42.626;23.382;2023-02-21T00:41:06;94538.22;;;9.16;52.37
7768;BME280;3928;42.626;23.382;2023-02-21T00:43:50;94532.28;;;9.14;52.56
7768;BME280;3928;42.626;23.382;2023-02-21T00:46:36;94525.47;;;9.13;52.95
7768;BME280;3928;42.626;23.382;2023-02-21T00:49:20;94532.25;;;9.17;52.47
7768;BME280;3928;42.626;23.382;2023-02-21T00:52:04;94534.72;;;9.28;51.81
7768;BME280;3928;42.626;23.382;2023-02-21T00:54:48;94523.66;;;9.21;52.36
7768;BME280;3928;42.626;23.382;2023-02-21T00:57:32;94520.41;;;9.04;53.11
7768;BME280;3928;42.626;23.382;2023-02-21T01:00:17;94515.22;;;9.15;52.82
7768;BME280;3928;42.626;23.382;2023-02-21T01:03:04;94503.16;;;9.27;51.88
7768;BME280;3928;42.626;23.382;2023-02-21T01:05:49;94498.06;;;9.24;51.76
7768;BME280;3928;42.626;23.382;2023-02-21T01:08:33;94480.28;;;9.04;51.95
7768;BME280;3928;42.626;23.382;2023-02-21T01:11:20;94489.56;;;9.19;52.27
7768;BME280;3928;42.626;23.382;2023-02-21T01:14:05;94484.41;;;9.24;51.32
7768;BME280;3928;42.626;23.382;2023-02-21T01:16:49;94480.94;;;9.28;52.14
7768;BME280;3928;42.626;23.382;2023-02-21T01:19:35;94474.22;;;9.16;51.46
7768;BME280;3928;42.626;23.382;2023-02-21T01:22:19;94464.81;;;9.18;51.54
7768;BME280;3928;42.626;23.382;2023-02-21T01:25:04;94461.38;;;9.19;51.73
7768;BME280;3928;42.626;23.382;2023-02-21T01:27:49;94452.84;;;9.20;52.12
7768;BME280;3928;42.626;23.382;2023-02-21T01:30:33;94459.59;;;9.29;51.26
7768;BME280;3928;42.626;23.382;2023-02-21T01:33:17;94452.69;;;9.37;50.76
7768;BME280;3928;42.626;23.382;2023-02-21T01:36:05;94467.59;;;8.88;53.09
7768;BME280;3928;42.626;23.382;2023-02-21T01:38:49;94457.41;;;8.85;52.74
7768;BME280;3928;42.626;23.382;2023-02-21T01:41:33;94472.72;;;8.88;53.53
7768;BME280;3928;42.626;23.382;2023-02-21T01:44:33;94465.97;;;8.81;53.39
7768;BME280;3928;42.626;23.382;2023-02-21T01:47:18;94470.13;;;8.94;53.29
7768;BME280;3928;42.626;23.382;2023-02-21T01:50:07;94463.28;;;9.00;52.89
7768;BME280;3928;42.626;23.382;2023-02-21T01:52:54;94462.28;;;9.15;52.06
7768;BME280;3928;42.626;23.382;2023-02-21T01:55:39;94442.63;;;9.19;51.79
7768;BME280;3928;42.626;23.382;2023-02-21T01:58:26;94438.31;;;9.22;52.40
7768;BME280;3928;42.626;23.382;2023-02-21T02:01:19;94440.84;;;9.25;51.35
7768;BME280;3928;42.626;23.382;2023-02-21T02:04:06;94438.38;;;9.18;51.57
7768;BME280;3928;42.626;23.382;2023-02-21T02:06:50;94442.59;;;9.20;52.15
7768;BME280;3928;42.626;23.382;2023-02-21T02:09:36;94421.31;;;9.17;51.51
7768;BME280;3928;42.626;23.382;2023-02-21T02:12:44;94427.19;;;9.26;51.75
7768;BME280;3928;42.626;23.382;2023-02-21T02:15:27;94413.56;;;9.24;51.49
7768;BME280;3928;42.626;23.382;2023-02-21T02:18:21;94412.75;;;9.18;51.57
7768;BME280;3928;42.626;23.382;2023-02-21T02:27:39;94417.06;;;9.11;52.27
7768;BME280;3928;42.626;23.382;2023-02-21T02:33:36;94406.00;;;9.09;52.60
7768;BME280;3928;42.626;23.382;2023-02-21T02:36:13;94399.09;;;9.17;52.00
7768;BME280;3928;42.626;23.382;2023-02-21T02:38:48;94396.56;;;9.16;52.29
7768;BME280;3928;42.626;23.382;2023-02-21T02:41:25;94403.44;;;9.12;52.11
7768;BME280;3928;42.626;23.382;2023-02-21T02:43:58;94409.28;;;9.23;51.92
7768;BME280;3928;42.626;23.382;2023-02-21T02:46:29;94415.16;;;9.33;51.71
7768;BME280;3928;42.626;23.382;2023-02-21T02:48:59;94422.81;;;9.37;51.78
7768;BME280;3928;42.626;23.382;2023-02-21T02:51:31;94401.38;;;9.48;51.66
7768;BME280;3928;42.626;23.382;2023-02-21T02:53:59;94407.22;;;9.57;50.75
7768;BME280;3928;42.626;23.382;2023-02-21T02:56:26;94398.63;;;9.63;50.18
7768;BME280;3928;42.626;23.382;2023-02-21T02:58:57;94422.69;;;9.47;50.43
7768;BME280;3928;42.626;23.382;2023-02-21T03:01:44;94404.16;;;9.26;51.80
7768;BME280;3928;42.626;23.382;2023-02-21T03:04:32;94412.63;;;9.31;50.73
7768;BME280;3928;42.626;23.382;2023-02-21T03:07:10;94417.69;;;9.34;51.23
7768;BME280;3928;42.626;23.382;2023-02-21T03:09:45;94411.88;;;9.19;51.20
7768;BME280;3928;42.626;23.382;2023-02-21T03:12:18;94420.59;;;9.01;52.22
7768;BME280;3928;42.626;23.382;2023-02-21T03:14:54;94421.63;;;8.82;53.11
7768;BME280;3928;42.626;23.382;2023-02-21T03:17:27;94402.00;;;8.81;53.07
7768;BME280;3928;42.626;23.382;2023-02-21T03:19:56;94414.59;;;9.05;52.47
7768;BME280;3928;42.626;23.382;2023-02-21T03:22:45;94424.84;;;9.02;52.84
7768;BME280;3928;42.626;23.382;2023-02-21T03:25:14;94404.25;;;9.14;52.60
7768;BME280;3928;42.626;23.382;2023-02-21T03:27:42;94402.69;;;9.01;52.05
7768;BME280;3928;42.626;23.382;2023-02-21T03:30:10;94395.75;;;9.14;52.21
7768;BME280;3928;42.626;23.382;2023-02-21T03:32:40;94400.78;;;9.20;52.31
7768;BME280;3928;42.626;23.382;2023-02-21T03:35:09;94403.19;;;9.33;50.71
7768;BME280;3928;42.626;23.382;2023-02-21T03:37:38;94382.09;;;9.13;51.61
7768;BME280;3928;42.626;23.382;2023-02-21T03:40:09;94393.06;;;9.23;51.68
7768;BME280;3928;42.626;23.382;2023-02-21T03:42:37;94389.75;;;9.15;51.46
7768;BME280;3928;42.626;23.382;2023-02-21T03:45:05;94393.25;;;9.04;52.33
7768;BME280;3928;42.626;23.382;2023-02-21T03:47:31;94388.94;;;9.13;52.05
7768;BME280;3928;42.626;23.382;2023-02-21T03:49:58;94388.78;;;9.26;51.34
7768;BME280;3928;42.626;23.382;2023-02-21T03:52:25;94381.97;;;9.22;51.39
7768;BME280;3928;42.626;23.382;2023-02-21T03:54:52;94402.31;;;9.37;51.69
7768;BME280;3928;42.626;23.382;2023-02-21T03:57:20;94403.03;;;9.50;50.90
7768;BME280;3928;42.626;23.382;2023-02-21T03:59:47;94419.56;;;9.20;51.42
7768;BME280;3928;42.626;23.382;2023-02-21T04:02:13;94416.34;;;9.01;52.35
7768;BME280;3928;42.626;23.382;2023-02-21T04:04:40;94413.63;;;9.17;52.31
7768;BME280;3928;42.626;23.382;2023-02-21T04:07:08;94419.50;;;9.23;52.36
7768;BME280;3928;42.626;23.382;2023-02-21T04:09:36;94407.66;;;9.16;51.34
7768;BME280;3928;42.626;23.382;2023-02-21T04:12:04;94410.97;;;9.27;51.42
7768;BME280;3928;42.626;23.382;2023-02-21T04:14:32;94418.59;;;9.30;50.81
7768;BME280;3928;42.626;23.382;2023-02-21T04:16:59;94407.47;;;9.33;50.61
7768;BME280;3928;42.626;23.382;2023-02-21T04:19:26;94413.50;;;9.29;51.33
7768;BME280;3928;42.626;23.382;2023-02-21T04:21:53;94422.00;;;9.31;50.78
7768;BME280;3928;42.626;23.382;2023-02-21T04:24:20;94428.72;;;9.43;50.61
7768;BME280;3928;42.626;23.382;2023-02-21T04:26:46;94444.16;;;9.38;51.16
7768;BME280;3928;42.626;23.382;2023-02-21T04:29:13;94403.19;;;9.33;50.51
7768;BME280;3928;42.626;23.382;2023-02-21T04:31:41;94435.63;;;9.34;50.91
7768;BME280;3928;42.626;23.382;2023-02-21T04:34:08;94448.44;;;9.37;50.34
7768;BME280;3928;42.626;23.382;2023-02-21T04:36:35;94445.88;;;9.37;51.38
7768;BME280;3928;42.626;23.382;2023-02-21T04:39:03;94444.13;;;9.40;51.37
7768;BME280;3928;42.626;23.382;2023-02-21T04:41:30;94444.91;;;9.48;51.39
7768;BME280;3928;42.626;23.382;2023-02-21T04:43:57;94444.03;;;9.49;51.11
7768;BME280;3928;42.626;23.382;2023-02-21T04:46:23;94435.63;;;9.36;51.06
7768;BME280;3928;42.626;23.382;2023-02-21T04:48:52;94422.81;;;9.34;50.52
7768;BME280;3928;42.626;23.382;2023-02-21T04:51:21;94440.56;;;9.53;50.37
7768;BME280;3928;42.626;23.382;2023-02-21T04:53:49;94434.63;;;9.51;50.13
7768;BME280;3928;42.626;23.382;2023-02-21T04:56:18;94436.38;;;9.46;50.27
7768;BME280;3928;42.626;23.382;2023-02-21T04:58:46;94434.66;;;9.48;50.55
7768;BME280;3928;42.626;23.382;2023-02-21T05:01:14;94412.69;;;9.22;51.20
7768;BME280;3928;42.626;23.382;2023-02-21T05:03:41;94416.13;;;9.24;50.84
7768;BME280;3928;42.626;23.382;2023-02-21T05:06:09;94309.19;;;8.66;51.96
7768;BME280;3928;42.626;23.382;2023-02-21T05:08:36;94406.94;;;8.99;52.24
7768;BME280;3928;42.626;23.382;2023-02-21T05:11:03;94411.47;;;8.69;53.42
7768;BME280;3928;42.626;23.382;2023-02-21T05:13:32;94385.81;;;8.75;52.96
7768;BME280;3928;42.626;23.382;2023-02-21T05:15:58;94391.78;;;8.81;53.29
7768;BME280;3928;42.626;23.382;2023-02-21T05:18:25;94399.38;;;8.90;53.39
7768;BME280;3928;42.626;23.382;2023-02-21T05:20:53;94389.06;;;8.96;52.56
7768;BME280;3928;42.626;23.382;2023-02-21T05:23:21;94396.69;;;9.03;51.77
7768;BME280;3928;42.626;23.382;2023-02-21T05:25:58;94390.00;;;8.86;52.57
7768;BME280;3928;42.626;23.382;2023-02-21T05:28:25;94388.44;;;8.69;53.06
7768;BME280;3928;42.626;23.382;2023-02-21T05:30:52;94396.16;;;8.63;53.39
7768;BME280;3928;42.626;23.382;2023-02-21T05:33:19;94401.47;;;8.33;54.74
7768;BME280;3928;42.626;23.382;2023-02-21T05:35:45;94404.91;;;8.32;54.92
7768;BME280;3928;42.626;23.382;2023-02-21T05:38:12;94382.06;;;8.06;54.87
7768;BME280;3928;42.626;23.382;2023-02-21T05:40:40;94400.69;;;8.23;55.00
7768;BME280;3928;42.626;23.382;2023-02-21T05:43:07;94418.63;;;8.15;55.72
7768;BME280;3928;42.626;23.382;2023-02-21T05:45:34;94416.03;;;8.21;55.58
7768;BME280;3928;42.626;23.382;2023-02-21T05:48:01;94404.09;;;8.24;55.60
7768;BME280;3928;42.626;23.382;2023-02-21T05:50:28;94416.75;;;8.46;55.45
7768;BME280;3928;42.626;23.382;2023-02-21T05:52:56;94403.88;;;8.59;54.58
7768;BME280;3928;42.626;23.382;2023-02-21T05:55:23;94419.38;;;8.36;55.05
7768;BME280;3928;42.626;23.382;2023-02-21T05:57:52;94424.44;;;8.45;54.86
7768;BME280;3928;42.626;23.382;2023-02-21T06:00:22;94409.09;;;8.46;54.75
7768;BME280;3928;42.626;23.382;2023-02-21T06:02:49;94422.53;;;8.73;54.77
7768;BME280;3928;42.626;23.382;2023-02-21T06:05:17;94421.53;;;8.88;54.08
7768;BME280;3928;42.626;23.382;2023-02-21T06:07:44;94424.03;;;9.00;54.19
7768;BME280;3928;42.626;23.382;2023-02-21T06:10:11;94429.97;;;9.03;52.90
7768;BME280;3928;42.626;23.382;2023-02-21T06:12:38;94432.56;;;8.97;53.14
7768;BME280;3928;42.626;23.382;2023-02-21T06:15:07;94436.78;;;9.03;53.29
7768;BME280;3928;42.626;23.382;2023-02-21T06:17:35;94419.75;;;9.02;56.01
7768;BME280;3928;42.626;23.382;2023-02-21T06:20:02;94432.88;;;9.53;69.28
7768;BME280;3928;42.626;23.382;2023-02-21T06:22:29;94429.00;;;9.93;60.62
7768;BME280;3928;42.626;23.382;2023-02-21T06:24:56;94418.16;;;10.39;62.49
7768;BME280;3928;42.626;23.382;2023-02-21T06:27:24;94444.75;;;10.92;54.14
7768;BME280;3928;42.626;23.382;2023-02-21T06:29:51;94440.16;;;11.11;51.72
7768;BME280;3928;42.626;23.382;2023-02-21T06:32:19;94435.50;;;11.33;49.59
7768;BME280;3928;42.626;23.382;2023-02-21T06:34:45;94440.97;;;11.15;47.39
7768;BME280;3928;42.626;23.382;2023-02-21T06:37:12;94458.75;;;10.73;48.65
7768;BME280;3928;42.626;23.382;2023-02-21T06:39:39;94456.56;;;11.04;50.34
7768;BME280;3928;42.626;23.382;2023-02-21T06:42:06;94461.19;;;11.33;48.89
7768;BME280;3928;42.626;23.382;2023-02-21T06:44:33;94459.06;;;11.07;47.57
7768;BME280;3928;42.626;23.382;2023-02-21T06:46:59;94461.56;;;11.11;47.04
7768;BME280;3928;42.626;23.382;2023-02-21T06:49:28;94469.41;;;11.04;47.09
7768;BME280;3928;42.626;23.382;2023-02-21T06:51:54;94454.88;;;11.00;46.51
7768;BME280;3928;42.626;23.382;2023-02-21T06:54:21;94450.97;;;10.76;47.26
7768;BME280;3928;42.626;23.382;2023-02-21T06:56:49;94452.47;;;10.92;48.51
7768;BME280;3928;42.626;23.382;2023-02-21T06:59:16;94409.63;;;10.94;47.71
7768;BME280;3928;42.626;23.382;2023-02-21T07:01:43;94454.16;;;11.44;46.13
7768;BME280;3928;42.626;23.382;2023-02-21T07:04:10;94449.94;;;11.41;46.48
7768;BME280;3928;42.626;23.382;2023-02-21T07:06:38;94445.41;;;11.54;45.53
7768;BME280;3928;42.626;23.382;2023-02-21T07:09:05;94450.06;;;11.82;45.84
7768;BME280;3928;42.626;23.382;2023-02-21T07:11:33;94446.09;;;12.10;43.83
7768;BME280;3928;42.626;23.382;2023-02-21T07:14:02;94445.84;;;12.22;43.40
7768;BME280;3928;42.626;23.382;2023-02-21T07:16:29;94450.84;;;12.28;43.73
7768;BME280;3928;42.626;23.382;2023-02-21T07:18:56;94436.78;;;12.45;43.22
7768;BME280;3928;42.626;23.382;2023-02-21T07:21:25;94374.00;;;12.13;42.77
7768;BME280;3928;42.626;23.382;2023-02-21T07:23:53;94441.03;;;12.84;42.69
7768;BME280;3928;42.626;23.382;2023-02-21T07:26:20;94448.34;;;13.03;42.43
7768;BME280;3928;42.626;23.382;2023-02-21T07:28:47;94428.97;;;13.22;41.85
7768;BME280;3928;42.626;23.382;2023-02-21T07:31:14;94430.91;;;13.48;40.56
7768;BME280;3928;42.626;23.382;2023-02-21T07:33:41;94436.81;;;13.84;40.07
7768;BME280;3928;42.626;23.382;2023-02-21T07:36:08;94433.53;;;14.10;39.09
7768;BME280;3928;42.626;23.382;2023-02-21T07:38:35;94437.56;;;14.19;38.54
7768;BME280;3928;42.626;23.382;2023-02-21T07:41:04;94430.25;;;14.34;38.03
7768;BME280;3928;42.626;23.382;2023-02-21T07:43:31;94400.00;;;14.38;37.98
7768;BME280;3928;42.626;23.382;2023-02-21T07:45:58;94418.75;;;14.46;37.97
7768;BME280;3928;42.626;23.382;2023-02-21T07:48:25;94424.66;;;14.78;37.99
7768;BME280;3928;42.626;23.382;2023-02-21T07:50:51;94411.91;;;15.00;37.60
7768;BME280;3928;42.626;23.382;2023-02-21T07:53:18;94430.84;;;15.27;36.37
7768;BME280;3928;42.626;23.382;2023-02-21T07:55:45;94416.94;;;15.31;36.48
7768;BME280;3928;42.626;23.382;2023-02-21T07:58:13;94420.50;;;15.27;36.58
7768;BME280;3928;42.626;23.382;2023-02-21T08:00:40;94411.66;;;15.34;36.29
7768;BME280;3928;42.626;23.382;2023-02-21T08:03:08;94416.22;;;15.26;36.42
7768;BME280;3928;42.626;23.382;2023-02-21T08:05:38;94403.47;;;15.21;36.30
7768;BME280;3928;42.626;23.382;2023-02-21T08:08:06;94416.78;;;15.35;36.39
7768;BME280;3928;42.626;23.382;2023-02-21T08:10:33;94417.69;;;15.34;35.79
7768;BME280;3928;42.626;23.382;2023-02-21T08:13:00;94416.94;;;15.31;36.48
7768;BME280;3928;42.626;23.382;2023-02-21T08:15:28;94420.09;;;15.39;36.25
7768;BME280;3928;42.626;23.382;2023-02-21T08:17:55;94420.81;;;15.44;36.74
7768;BME280;3928;42.626;23.382;2023-02-21T08:20:22;94390.13;;;15.33;36.36
7768;BME280;3928;42.626;23.382;2023-02-21T08:22:49;94418.00;;;15.50;36.29
7768;BME280;3928;42.626;23.382;2023-02-21T08:25:16;94410.25;;;15.50;35.93
7768;BME280;3928;42.626;23.382;2023-02-21T08:27:43;94411.81;;;15.29;36.57
7768;BME280;3928;42.626;23.382;2023-02-21T08:30:13;94403.66;;;15.41;36.29
7768;BME280;3928;42.626;23.382;2023-02-21T08:32:43;94395.44;;;15.55;35.94
7768;BME280;3928;42.626;23.382;2023-02-21T08:35:13;94405.59;;;15.35;36.16
7768;BME280;3928;42.626;23.382;2023-02-21T08:37:43;94392.84;;;15.55;36.07
7768;BME280;3928;42.626;23.382;2023-02-21T08:40:10;94389.63;;;15.73;36.00
7768;BME280;3928;42.626;23.382;2023-02-21T08:42:38;94385.94;;;15.81;35.64
7768;BME280;3928;42.626;23.382;2023-02-21T08:45:06;94395.97;;;15.90;35.52
7768;BME280;3928;42.626;23.382;2023-02-21T08:47:35;94375.25;;;15.90;35.44
7768;BME280;3928;42.626;23.382;2023-02-21T08:50:03;94388.66;;;16.01;35.78
7768;BME280;3928;42.626;23.382;2023-02-21T08:52:30;94395.06;;;15.91;35.70
7768;BME280;3928;42.626;23.382;2023-02-21T08:54:57;94392.34;;;15.94;35.87
7768;BME280;3928;42.626;23.382;2023-02-21T08:57:24;94378.41;;;15.98;34.87
7768;BME280;3928;42.626;23.382;2023-02-21T08:59:51;94372.00;;;16.08;34.67
7768;BME280;3928;42.626;23.382;2023-02-21T09:02:19;94388.22;;;16.36;34.44
7768;BME280;3928;42.626;23.382;2023-02-21T09:04:47;94380.81;;;16.49;34.11
7768;BME280;3928;42.626;23.382;2023-02-21T09:07:18;94390.00;;;16.80;33.90
7768;BME280;3928;42.626;23.382;2023-02-21T09:09:45;94369.75;;;16.89;33.54
7768;BME280;3928;42.626;23.382;2023-02-21T09:12:12;94379.25;;;17.11;33.49
7768;BME280;3928;42.626;23.382;2023-02-21T09:14:40;94381.34;;;17.23;33.45
7768;BME280;3928;42.626;23.382;2023-02-21T09:17:10;94373.59;;;17.43;33.42
7768;BME280;3928;42.626;23.382;2023-02-21T09:19:38;94365.44;;;17.52;32.73
7768;BME280;3928;42.626;23.382;2023-02-21T09:22:06;94379.91;;;17.78;32.59
7768;BME280;3928;42.626;23.382;2023-02-21T09:24:36;94374.38;;;17.86;32.63
7768;BME280;3928;42.626;23.382;2023-02-21T09:27:03;94373.84;;;17.58;32.66
7768;BME280;3928;42.626;23.382;2023-02-21T09:29:32;94370.47;;;17.56;32.50
7768;BME280;3928;42.626;23.382;2023-02-21T09:32:00;94363.59;;;17.54;32.92
7768;BME280;3928;42.626;23.382;2023-02-21T09:34:27;94348.50;;;17.64;32.81
7768;BME280;3928;42.626;23.382;2023-02-21T09:36:54;94349.19;;;17.68;32.97
7768;BME280;3928;42.626;23.382;2023-02-21T09:39:21;94344.13;;;17.85;32.64
7768;BME280;3928;42.626;23.382;2023-02-21T09:41:51;94354.84;;;18.17;31.78
7768;BME280;3928;42.626;23.382;2023-02-21T09:44:22;94303.97;;;18.13;31.81
7768;BME280;3928;42.626;23.382;2023-02-21T09:46:52;94348.31;;;18.64;31.27
7768;BME280;3928;42.626;23.382;2023-02-21T09:49:22;94358.41;;;18.89;30.85
7768;BME280;3928;42.626;23.382;2023-02-21T09:51:50;94354.41;;;19.18;30.45
7768;BME280;3928;42.626;23.382;2023-02-21T09:54:22;94335.88;;;19.42;29.51
7768;BME280;3928;42.626;23.382;2023-02-21T09:56:53;94341.63;;;19.66;29.46
7768;BME280;3928;42.626;23.382;2023-02-21T09:59:20;94323.88;;;19.56;29.45
7768;BME280;3928;42.626;23.382;2023-02-21T10:01:55;94326.91;;;19.65;29.84
7768;BME280;3928;42.626;23.382;2023-02-21T10:04:33;94336.78;;;19.75;29.48
7768;BME280;3928;42.626;23.382;2023-02-21T10:07:07;94315.44;;;20.02;29.05
7768;BME280;3928;42.626;23.382;2023-02-21T10:09:41;94318.78;;;20.04;29.10
7768;BME280;3928;42.626;23.382;2023-02-21T10:12:18;94303.72;;;20.42;29.02
7768;BME280;3928;42.626;23.382;2023-02-21T10:15:16;94302.00;;;20.88;28.53
7768;BME280;3928;42.626;23.382;2023-02-21T10:17:48;94309.66;;;21.37;27.44
7768;BME280;3928;42.626;23.382;2023-02-21T10:20:21;94292.28;;;21.80;27.00
7768;BME280;3928;42.626;23.382;2023-02-21T10:22:54;94296.00;;;22.33;26.41
7768;BME280;3928;42.626;23.382;2023-02-21T10:25:25;94297.97;;;22.85;25.75
7768;BME280;3928;42.626;23.382;2023-02-21T10:27:56;94284.38;;;23.32;25.25
7768;BME280;3928;42.626;23.382;2023-02-21T10:30:28;94285.91;;;23.87;24.47
7768;BME280;3928;42.626;23.382;2023-02-21T10:32:56;94278.44;;;24.32;23.88
7768;BME280;3928;42.626;23.382;2023-02-21T10:35:24;94277.69;;;24.67;23.43
7768;BME280;3928;42.626;23.382;2023-02-21T10:37:53;94256.88;;;25.00;22.15
7768;BME280;3928;42.626;23.382;2023-02-21T10:40:27;94260.53;;;25.46;21.84
7768;BME280;3928;42.626;23.382;2023-02-21T10:43:02;94264.53;;;25.74;20.75
7768;BME280;3928;42.626;23.382;2023-02-21T10:45:34;94266.25;;;26.08;20.47
7768;BME280;3928;42.626;23.382;2023-02-21T10:48:04;94253.09;;;26.42;20.02
7768;BME280;3928;42.626;23.382;2023-02-21T10:50:41;94249.06;;;26.81;20.07
7768;BME280;3928;42.626;23.382;2023-02-21T10:53:08;94246.66;;;27.21;19.68
7768;BME280;3928;42.626;23.382;2023-02-21T10:56:06;94212.28;;;27.44;18.77
7768;BME280;3928;42.626;23.382;2023-02-21T10:58:35;94236.03;;;27.85;18.24
7768;BME280;3928;42.626;23.382;2023-02-21T11:01:11;94222.25;;;28.12;18.84
7768;BME280;3928;42.626;23.382;2023-02-21T11:03:45;94215.41;;;28.40;18.05
7768;BME280;3928;42.626;23.382;2023-02-21T11:06:23;94214.75;;;28.17;17.91
7768;BME280;3928;42.626;23.382;2023-02-21T11:08:50;94215.47;;;28.19;18.42
7768;BME280;3928;42.626;23.382;2023-02-21T11:11:31;94204.16;;;28.38;17.59
7768;BME280;3928;42.626;23.382;2023-02-21T11:14:19;94200.63;;;28.68;17.92
7768;BME280;3928;42.626;23.382;2023-02-21T11:17:14;94195.38;;;28.88;17.32
7768;BME280;3928;42.626;23.382;2023-02-21T11:19:51;94202.44;;;28.87;15.89
7768;BME280;3928;42.626;23.382;2023-02-21T11:22:21;94187.91;;;27.51;16.14
7768;BME280;3928;42.626;23.382;2023-02-21T11:24:57;94182.06;;;27.06;16.88
7768;BME280;3928;42.626;23.382;2023-02-21T11:27:26;94186.31;;;27.18;16.88
7768;BME280;3928;42.626;23.382;2023-02-21T11:29:57;94180.06;;;26.87;16.91
7768;BME280;3928;42.626;23.382;2023-02-21T11:32:28;94183.63;;;26.76;17.56
7768;BME280;3928;42.626;23.382;2023-02-21T11:35:00;94172.72;;;26.38;17.27
7768;BME280;3928;42.626;23.382;2023-02-21T11:37:28;94180.53;;;26.06;17.89
7768;BME280;3928;42.626;23.382;2023-02-21T11:39:57;94169.03;;;26.40;18.28
7768;BME280;3928;42.626;23.382;2023-02-21T11:42:28;94169.75;;;26.95;17.34
7768;BME280;3928;42.626;23.382;2023-02-21T11:45:10;94159.75;;;27.52;16.81
7768;BME280;3928;42.626;23.382;2023-02-21T11:47:45;94154.25;;;27.85;16.65
7768;BME280;3928;42.626;23.382;2023-02-21T11:50:18;94131.47;;;27.33;16.76
7768;BME280;3928;42.626;23.382;2023-02-21T11:52:52;94143.66;;;27.76;16.98
7768;BME280;3928;42.626;23.382;2023-02-21T11:55:22;94139.69;;;28.31;16.32
7768;BME280;3928;42.626;23.382;2023-02-21T11:57:59;94131.09;;;28.87;15.92
7768;BME280;3928;42.626;23.382;2023-02-21T12:00:36;94135.41;;;29.36;15.60
7768;BME280;3928;42.626;23.382;2023-02-21T12:03:36;94132.78;;;29.07;15.78
7768;BME280;3928;42.626;23.382;2023-02-21T12:06:11;94115.25;;;28.48;15.74
7768;BME280;3928;42.626;23.382;2023-02-21T12:08:44;94106.69;;;27.96;16.87
7768;BME280;3928;42.626;23.382;2023-02-21T12:11:21;94112.00;;;28.25;16.62
7768;BME280;3928;42.626;23.382;2023-02-21T12:14:02;94110.00;;;29.06;16.78
7768;BME280;3928;42.626;23.382;2023-02-21T12:16:44;94122.75;;;29.11;15.52
7768;BME280;3928;42.626;23.382;2023-02-21T12:19:22;94103.84;;;28.38;16.29
7768;BME280;3928;42.626;23.382;2023-02-21T12:22:01;94100.81;;;28.43;16.76
7768;BME280;3928;42.626;23.382;2023-02-21T12:24:41;94088.25;;;27.45;16.83
7768;BME280;3928;42.626;23.382;2023-02-21T12:27:16;94081.44;;;26.38;17.72
7768;BME280;3928;42.626;23.382;2023-02-21T12:30:02;94084.28;;;26.03;18.40
7768;BME280;3928;42.626;23.382;2023-02-21T12:32:48;94089.03;;;26.20;18.21
7768;BME280;3928;42.626;23.382;2023-02-21T12:35:43;94081.22;;;25.64;18.22
7768;BME280;3928;42.626;23.382;2023-02-21T12:38:22;94087.19;;;25.55;18.70
7768;BME280;3928;42.626;23.382;2023-02-21T12:41:00;94079.31;;;25.22;18.83
7768;BME280;3928;42.626;23.382;2023-02-21T12:43:41;94078.75;;;24.83;19.04
7768;BME280;3928;42.626;23.382;2023-02-21T12:46:16;94077.44;;;24.77;19.26
7768;BME280;3928;42.626;23.382;2023-02-21T12:48:50;94062.03;;;24.73;19.71
7768;BME280;3928;42.626;23.382;2023-02-21T12:51:25;94060.59;;;25.26;19.53
7768;BME280;3928;42.626;23.382;2023-02-21T12:53:56;94070.97;;;25.73;18.91
7768;BME280;3928;42.626;23.382;2023-02-21T12:56:29;94071.38;;;26.00;18.51
7768;BME280;3928;42.626;23.382;2023-02-21T12:59:01;94066.56;;;25.51;19.16
7768;BME280;3928;42.626;23.382;2023-02-21T13:01:32;94059.47;;;25.96;18.70
7768;BME280;3928;42.626;23.382;2023-02-21T13:04:12;94060.63;;;26.67;18.30
7768;BME280;3928;42.626;23.382;2023-02-21T13:06:44;94060.38;;;26.70;18.03
7768;BME280;3928;42.626;23.382;2023-02-21T13:09:19;94063.97;;;27.42;17.39
7768;BME280;3928;42.626;23.382;2023-02-21T13:11:55;94071.16;;;28.10;17.11
7768;BME280;3928;42.626;23.382;2023-02-21T13:14:30;94061.06;;;28.44;16.59
7768;BME280;3928;42.626;23.382;2023-02-21T13:16:57;94054.25;;;28.71;16.39
7768;BME280;3928;42.626;23.382;2023-02-21T13:19:39;94045.56;;;29.17;15.60
7768;BME280;3928;42.626;23.382;2023-02-21T13:25:40;94037.28;;;29.49;15.86
7768;BME280;3928;42.626;23.382;2023-02-21T13:28:15;94035.72;;;29.84;15.39
7768;BME280;3928;42.626;23.382;2023-02-21T13:30:45;94037.66;;;30.63;15.28
7768;BME280;3928;42.626;23.382;2023-02-21T13:33:25;94038.00;;;31.03;14.22
7768;BME280;3928;42.626;23.382;2023-02-21T13:35:56;94038.69;;;31.31;15.65
7768;BME280;3928;42.626;23.382;2023-02-21T13:38:25;94031.72;;;31.30;14.99
7768;BME280;3928;42.626;23.382;2023-02-21T13:41:02;94026.06;;;31.93;14.56
7768;BME280;3928;42.626;23.382;2023-02-21T13:43:32;94024.88;;;32.63;13.97
7768;BME280;3928;42.626;23.382;2023-02-21T13:46:39;94021.25;;;32.96;13.67
7768;BME280;3928;42.626;23.382;2023-02-21T13:49:37;94015.72;;;33.14;13.31
7768;BME280;3928;42.626;23.382;2023-02-21T13:52:27;94014.88;;;33.13;13.60
7768;BME280;3928;42.626;23.382;2023-02-21T13:55:29;94014.72;;;33.15;13.32
7768;BME280;3928;42.626;23.382;2023-02-21T14:07:56;94004.47;;;33.59;13.05
7768;BME280;3928;42.626;23.382;2023-02-21T14:10:40;94001.34;;;33.56;13.35
7768;BME280;3928;42.626;23.382;2023-02-21T14:13:31;94010.72;;;33.91;13.35